Terminal Aerodrome Forecast
Issued by NWS

Home | Current Version | Previous Version | Text Only | Print | Product List | Glossary On
Versions: 1 2 3 4 5 6 7 8 9 10 11 12 13 14 15 16 17
000
FTUS42 KGSP 050520
TAFGMU
TAF
KGMU 050520Z 0506/0606 31006KT P6SM FEW250
     FM051500 32011G18KT P6SM SCT200 PROB30 0517/0523 4SM -SHRA
      BKN060 BKN070 BKN080
     FM060200 31007KT P6SM BKN080=

USA.gov is the U.S. government's official web portal to all federal, state and local government web resources and services.